sensor_id;sensor_type;location;lat;lon;timestamp;temperature;humidity
18658;DHT22;9458;50.942;5.074;2023-03-25T00:00:07;10.40;99.90
18658;DHT22;9458;50.942;5.074;2023-03-25T00:02:42;10.40;99.90
18658;DHT22;9458;50.942;5.074;2023-03-25T00:05:10;10.40;99.90
18658;DHT22;9458;50.942;5.074;2023-03-25T00:07:39;10.40;99.90
18658;DHT22;9458;50.942;5.074;2023-03-25T00:10:12;10.40;99.90
18658;DHT22;9458;50.942;5.074;2023-03-25T00:12:41;10.40;99.90
18658;DHT22;9458;50.942;5.074;2023-03-25T00:15:11;10.40;99.90
18658;DHT22;9458;50.942;5.074;2023-03-25T00:17:41;10.30;99.90
18658;DHT22;9458;50.942;5.074;2023-03-25T00:20:09;10.30;99.90
18658;DHT22;9458;50.942;5.074;2023-03-25T00:22:38;10.30;99.90
18658;DHT22;9458;50.942;5.074;2023-03-25T00:25:13;10.30;99.90
18658;DHT22;9458;50.942;5.074;2023-03-25T00:27:44;10.20;99.90
18658;DHT22;9458;50.942;5.074;2023-03-25T00:30:13;10.20;99.90
18658;DHT22;9458;50.942;5.074;2023-03-25T00:32:43;10.20;99.90
18658;DHT22;9458;50.942;5.074;2023-03-25T00:35:14;10.20;99.90
18658;DHT22;9458;50.942;5.074;2023-03-25T00:37:44;10.20;99.90
18658;DHT22;9458;50.942;5.074;2023-03-25T00:40:15;10.20;99.90
18658;DHT22;9458;50.942;5.074;2023-03-25T00:42:43;10.20;99.90
18658;DHT22;9458;50.942;5.074;2023-03-25T00:45:16;10.20;99.90
18658;DHT22;9458;50.942;5.074;2023-03-25T00:47:45;10.10;99.90
18658;DHT22;9458;50.942;5.074;2023-03-25T00:50:15;10.00;99.90
18658;DHT22;9458;50.942;5.074;2023-03-25T00:52:44;10.10;99.90
18658;DHT22;9458;50.942;5.074;2023-03-25T00:55:14;10.10;99.90
18658;DHT22;9458;50.942;5.074;2023-03-25T00:57:43;10.10;99.90
18658;DHT22;9458;50.942;5.074;2023-03-25T01:00:13;10.10;99.90
18658;DHT22;9458;50.942;5.074;2023-03-25T01:02:43;10.00;99.90
18658;DHT22;9458;50.942;5.074;2023-03-25T01:05:18;10.00;99.90
18658;DHT22;9458;50.942;5.074;2023-03-25T01:07:47;10.00;99.90
18658;DHT22;9458;50.942;5.074;2023-03-25T01:10:19;10.00;99.90
18658;DHT22;9458;50.942;5.074;2023-03-25T01:12:48;10.00;99.90
18658;DHT22;9458;50.942;5.074;2023-03-25T01:15:17;10.00;99.90
18658;DHT22;9458;50.942;5.074;2023-03-25T01:17:47;10.00;99.90
18658;DHT22;9458;50.942;5.074;2023-03-25T01:20:14;10.00;99.90
18658;DHT22;9458;50.942;5.074;2023-03-25T01:22:43;10.00;99.90
18658;DHT22;9458;50.942;5.074;2023-03-25T01:25:16;10.00;99.90
18658;DHT22;9458;50.942;5.074;2023-03-25T01:27:49;10.00;99.90
18658;DHT22;9458;50.942;5.074;2023-03-25T01:30:24;9.90;99.90
18658;DHT22;9458;50.942;5.074;2023-03-25T01:32:57;10.00;99.90
18658;DHT22;9458;50.942;5.074;2023-03-25T01:35:30;10.00;99.90
18658;DHT22;9458;50.942;5.074;2023-03-25T01:38:08;10.10;99.90
18658;DHT22;9458;50.942;5.074;2023-03-25T01:40:35;10.00;99.90
18658;DHT22;9458;50.942;5.074;2023-03-25T01:43:08;10.10;99.90
18658;DHT22;9458;50.942;5.074;2023-03-25T01:45:38;10.10;99.90
18658;DHT22;9458;50.942;5.074;2023-03-25T01:48:14;10.10;99.90
18658;DHT22;9458;50.942;5.074;2023-03-25T01:50:52;10.10;99.90
18658;DHT22;9458;50.942;5.074;2023-03-25T01:53:26;10.10;99.90
18658;DHT22;9458;50.942;5.074;2023-03-25T01:55:56;10.10;99.90
18658;DHT22;9458;50.942;5.074;2023-03-25T01:58:27;10.10;99.90
18658;DHT22;9458;50.942;5.074;2023-03-25T02:00:55;10.10;99.90
18658;DHT22;9458;50.942;5.074;2023-03-25T02:03:31;10.10;99.90
18658;DHT22;9458;50.942;5.074;2023-03-25T02:06:06;10.00;99.90
18658;DHT22;9458;50.942;5.074;2023-03-25T02:08:37;10.00;99.90
18658;DHT22;9458;50.942;5.074;2023-03-25T02:11:11;10.00;99.90
18658;DHT22;9458;50.942;5.074;2023-03-25T02:13:46;10.00;99.90
18658;DHT22;9458;50.942;5.074;2023-03-25T02:16:25;10.00;99.90
18658;DHT22;9458;50.942;5.074;2023-03-25T02:19:19;10.10;99.90
18658;DHT22;9458;50.942;5.074;2023-03-25T02:22:36;10.10;99.90
18658;DHT22;9458;50.942;5.074;2023-03-25T02:25:23;10.10;99.90
18658;DHT22;9458;50.942;5.074;2023-03-25T02:28:02;10.10;99.90
18658;DHT22;9458;50.942;5.074;2023-03-25T02:30:50;10.10;99.90
18658;DHT22;9458;50.942;5.074;2023-03-25T02:33:45;10.10;99.90
18658;DHT22;9458;50.942;5.074;2023-03-25T02:36:52;10.00;99.90
18658;DHT22;9458;50.942;5.074;2023-03-25T02:39:31;10.00;99.90
18658;DHT22;9458;50.942;5.074;2023-03-25T02:42:05;10.00;99.90
18658;DHT22;9458;50.942;5.074;2023-03-25T02:44:38;10.00;99.90
18658;DHT22;9458;50.942;5.074;2023-03-25T02:47:10;10.00;99.90
18658;DHT22;9458;50.942;5.074;2023-03-25T02:49:41;10.00;99.90
18658;DHT22;9458;50.942;5.074;2023-03-25T02:52:14;10.00;99.90
18658;DHT22;9458;50.942;5.074;2023-03-25T02:54:46;10.10;99.90
18658;DHT22;9458;50.942;5.074;2023-03-25T02:57:18;10.00;99.90
18658;DHT22;9458;50.942;5.074;2023-03-25T02:59:46;10.00;99.90
18658;DHT22;9458;50.942;5.074;2023-03-25T03:02:16;10.10;99.90
18658;DHT22;9458;50.942;5.074;2023-03-25T03:04:46;10.00;99.90
18658;DHT22;9458;50.942;5.074;2023-03-25T03:07:20;10.00;99.90
18658;DHT22;9458;50.942;5.074;2023-03-25T03:09:58;10.00;99.90
18658;DHT22;9458;50.942;5.074;2023-03-25T03:12:39;10.00;99.90
18658;DHT22;9458;50.942;5.074;2023-03-25T03:15:30;10.00;99.90
18658;DHT22;9458;50.942;5.074;2023-03-25T03:18:08;10.00;99.90
18658;DHT22;9458;50.942;5.074;2023-03-25T03:20:43;10.00;99.90
18658;DHT22;9458;50.942;5.074;2023-03-25T03:23:21;10.00;99.90
18658;DHT22;9458;50.942;5.074;2023-03-25T03:25:55;10.00;99.90
18658;DHT22;9458;50.942;5.074;2023-03-25T03:28:31;10.00;99.90
18658;DHT22;9458;50.942;5.074;2023-03-25T03:31:03;9.90;99.90
18658;DHT22;9458;50.942;5.074;2023-03-25T03:33:37;9.90;99.90
18658;DHT22;9458;50.942;5.074;2023-03-25T03:36:08;9.90;99.90
18658;DHT22;9458;50.942;5.074;2023-03-25T03:38:41;9.90;99.90
18658;DHT22;9458;50.942;5.074;2023-03-25T03:41:17;9.90;99.90
18658;DHT22;9458;50.942;5.074;2023-03-25T03:43:49;10.00;99.90
18658;DHT22;9458;50.942;5.074;2023-03-25T03:46:20;9.90;99.90
18658;DHT22;9458;50.942;5.074;2023-03-25T03:48:52;10.00;99.90
18658;DHT22;9458;50.942;5.074;2023-03-25T03:51:24;10.00;99.90
18658;DHT22;9458;50.942;5.074;2023-03-25T03:53:57;10.00;99.90
18658;DHT22;9458;50.942;5.074;2023-03-25T03:56:29;10.00;99.90
18658;DHT22;9458;50.942;5.074;2023-03-25T03:59:04;10.00;99.90
18658;DHT22;9458;50.942;5.074;2023-03-25T04:01:38;10.00;99.90
18658;DHT22;9458;50.942;5.074;2023-03-25T04:04:14;10.00;99.90
18658;DHT22;9458;50.942;5.074;2023-03-25T04:06:49;10.00;99.90
18658;DHT22;9458;50.942;5.074;2023-03-25T04:09:24;10.00;99.90
18658;DHT22;9458;50.942;5.074;2023-03-25T04:11:58;10.00;99.90
18658;DHT22;9458;50.942;5.074;2023-03-25T04:14:27;10.00;99.90
18658;DHT22;9458;50.942;5.074;2023-03-25T04:16:54;10.00;99.90
18658;DHT22;9458;50.942;5.074;2023-03-25T04:19:22;10.00;99.90
18658;DHT22;9458;50.942;5.074;2023-03-25T04:21:50;10.00;99.90
18658;DHT22;9458;50.942;5.074;2023-03-25T04:24:18;10.00;99.90
18658;DHT22;9458;50.942;5.074;2023-03-25T04:26:46;10.00;99.90
18658;DHT22;9458;50.942;5.074;2023-03-25T04:29:16;10.00;99.90
18658;DHT22;9458;50.942;5.074;2023-03-25T04:31:44;10.00;99.90
18658;DHT22;9458;50.942;5.074;2023-03-25T04:34:15;10.00;99.90
18658;DHT22;9458;50.942;5.074;2023-03-25T04:36:45;10.00;99.90
18658;DHT22;9458;50.942;5.074;2023-03-25T04:39:14;10.00;99.90
18658;DHT22;9458;50.942;5.074;2023-03-25T04:41:43;10.00;99.90
18658;DHT22;9458;50.942;5.074;2023-03-25T04:44:11;10.00;99.90
18658;DHT22;9458;50.942;5.074;2023-03-25T04:46:39;10.00;99.90
18658;DHT22;9458;50.942;5.074;2023-03-25T04:49:09;10.00;99.90
18658;DHT22;9458;50.942;5.074;2023-03-25T04:51:44;9.90;99.90
18658;DHT22;9458;50.942;5.074;2023-03-25T04:54:11;9.90;99.90
18658;DHT22;9458;50.942;5.074;2023-03-25T04:56:39;9.90;99.90
18658;DHT22;9458;50.942;5.074;2023-03-25T04:59:06;9.90;99.90
18658;DHT22;9458;50.942;5.074;2023-03-25T05:01:36;9.90;99.90
18658;DHT22;9458;50.942;5.074;2023-03-25T05:04:09;10.00;99.90
18658;DHT22;9458;50.942;5.074;2023-03-25T05:06:41;10.00;99.90
18658;DHT22;9458;50.942;5.074;2023-03-25T05:09:11;10.00;99.90
18658;DHT22;9458;50.942;5.074;2023-03-25T05:11:39;10.00;99.90
18658;DHT22;9458;50.942;5.074;2023-03-25T05:14:08;10.00;99.90
18658;DHT22;9458;50.942;5.074;2023-03-25T05:16:35;10.00;99.90
18658;DHT22;9458;50.942;5.074;2023-03-25T05:19:03;10.10;99.90
18658;DHT22;9458;50.942;5.074;2023-03-25T05:21:33;10.10;99.90
18658;DHT22;9458;50.942;5.074;2023-03-25T05:24:03;10.10;99.90
18658;DHT22;9458;50.942;5.074;2023-03-25T05:26:33;10.10;99.90
18658;DHT22;9458;50.942;5.074;2023-03-25T05:29:01;10.00;99.90
18658;DHT22;9458;50.942;5.074;2023-03-25T05:31:29;10.00;99.90
18658;DHT22;9458;50.942;5.074;2023-03-25T05:33:57;10.10;99.90
18658;DHT22;9458;50.942;5.074;2023-03-25T05:36:25;10.10;99.90
18658;DHT22;9458;50.942;5.074;2023-03-25T05:38:54;10.00;99.90
18658;DHT22;9458;50.942;5.074;2023-03-25T05:41:22;10.00;99.90
18658;DHT22;9458;50.942;5.074;2023-03-25T05:43:58;10.00;99.90
18658;DHT22;9458;50.942;5.074;2023-03-25T05:46:26;10.10;99.90
18658;DHT22;9458;50.942;5.074;2023-03-25T05:48:55;10.10;99.90
18658;DHT22;9458;50.942;5.074;2023-03-25T05:51:26;10.10;99.90
18658;DHT22;9458;50.942;5.074;2023-03-25T05:53:55;10.10;99.90
18658;DHT22;9458;50.942;5.074;2023-03-25T05:56:23;10.10;99.90
18658;DHT22;9458;50.942;5.074;2023-03-25T05:58:52;10.10;99.90
18658;DHT22;9458;50.942;5.074;2023-03-25T06:01:20;10.10;99.90
18658;DHT22;9458;50.942;5.074;2023-03-25T06:03:48;10.10;99.90
18658;DHT22;9458;50.942;5.074;2023-03-25T06:06:16;10.10;99.90
18658;DHT22;9458;50.942;5.074;2023-03-25T06:08:47;10.10;99.90
18658;DHT22;9458;50.942;5.074;2023-03-25T06:11:18;10.10;99.90
18658;DHT22;9458;50.942;5.074;2023-03-25T06:13:47;10.10;99.90
18658;DHT22;9458;50.942;5.074;2023-03-25T06:16:17;10.10;99.90
18658;DHT22;9458;50.942;5.074;2023-03-25T06:18:48;10.10;99.90
18658;DHT22;9458;50.942;5.074;2023-03-25T06:21:21;10.10;99.90
18658;DHT22;9458;50.942;5.074;2023-03-25T06:23:49;10.10;99.90
18658;DHT22;9458;50.942;5.074;2023-03-25T06:26:19;10.10;99.90
18658;DHT22;9458;50.942;5.074;2023-03-25T06:28:47;10.10;99.90
18658;DHT22;9458;50.942;5.074;2023-03-25T06:31:17;10.00;99.90
18658;DHT22;9458;50.942;5.074;2023-03-25T06:33:46;10.00;99.90
18658;DHT22;9458;50.942;5.074;2023-03-25T06:36:16;10.00;99.90
18658;DHT22;9458;50.942;5.074;2023-03-25T06:38:46;9.90;99.90
18658;DHT22;9458;50.942;5.074;2023-03-25T06:41:14;9.90;99.90
18658;DHT22;9458;50.942;5.074;2023-03-25T06:43:45;10.00;99.90
18658;DHT22;9458;50.942;5.074;2023-03-25T06:46:13;10.50;99.90
18658;DHT22;9458;50.942;5.074;2023-03-25T06:48:42;11.50;99.90
18658;DHT22;9458;50.942;5.074;2023-03-25T06:51:10;12.50;99.90
18658;DHT22;9458;50.942;5.074;2023-03-25T06:53:38;12.80;99.90
18658;DHT22;9458;50.942;5.074;2023-03-25T06:56:06;13.20;99.90
18658;DHT22;9458;50.942;5.074;2023-03-25T06:58:34;13.40;99.90
18658;DHT22;9458;50.942;5.074;2023-03-25T07:01:04;13.50;99.90
18658;DHT22;9458;50.942;5.074;2023-03-25T07:03:41;13.40;99.90
18658;DHT22;9458;50.942;5.074;2023-03-25T07:06:16;13.10;99.90
18658;DHT22;9458;50.942;5.074;2023-03-25T07:08:53;12.80;99.90
18658;DHT22;9458;50.942;5.074;2023-03-25T07:11:24;12.50;99.90
18658;DHT22;9458;50.942;5.074;2023-03-25T07:13:53;12.40;99.90
18658;DHT22;9458;50.942;5.074;2023-03-25T07:16:22;12.10;99.90
18658;DHT22;9458;50.942;5.074;2023-03-25T07:18:51;12.00;99.90
18658;DHT22;9458;50.942;5.074;2023-03-25T07:21:19;11.90;99.90
18658;DHT22;9458;50.942;5.074;2023-03-25T07:23:46;11.80;99.90
18658;DHT22;9458;50.942;5.074;2023-03-25T07:26:15;11.70;99.90
18658;DHT22;9458;50.942;5.074;2023-03-25T07:28:43;11.60;99.90
18658;DHT22;9458;50.942;5.074;2023-03-25T07:31:12;11.80;99.90
18658;DHT22;9458;50.942;5.074;2023-03-25T07:33:42;12.10;99.90
18658;DHT22;9458;50.942;5.074;2023-03-25T07:36:11;12.20;99.90
18658;DHT22;9458;50.942;5.074;2023-03-25T07:38:40;12.10;99.90
18658;DHT22;9458;50.942;5.074;2023-03-25T07:41:09;12.00;99.90
18658;DHT22;9458;50.942;5.074;2023-03-25T07:43:38;12.10;99.90
18658;DHT22;9458;50.942;5.074;2023-03-25T07:46:06;12.60;99.90
18658;DHT22;9458;50.942;5.074;2023-03-25T07:48:34;12.70;99.90
18658;DHT22;9458;50.942;5.074;2023-03-25T07:51:03;12.80;99.90
18658;DHT22;9458;50.942;5.074;2023-03-25T07:53:30;12.90;99.90
18658;DHT22;9458;50.942;5.074;2023-03-25T07:55:59;13.30;99.90
18658;DHT22;9458;50.942;5.074;2023-03-25T07:58:26;13.60;99.90
18658;DHT22;9458;50.942;5.074;2023-03-25T08:00:55;14.10;99.90
18658;DHT22;9458;50.942;5.074;2023-03-25T08:03:24;14.60;99.90
18658;DHT22;9458;50.942;5.074;2023-03-25T08:05:52;14.90;99.90
18658;DHT22;9458;50.942;5.074;2023-03-25T08:08:22;15.00;99.90
18658;DHT22;9458;50.942;5.074;2023-03-25T08:10:50;15.20;99.90
18658;DHT22;9458;50.942;5.074;2023-03-25T08:13:18;14.90;99.90
18658;DHT22;9458;50.942;5.074;2023-03-25T08:15:46;14.50;99.90
18658;DHT22;9458;50.942;5.074;2023-03-25T08:18:14;14.00;99.90
18658;DHT22;9458;50.942;5.074;2023-03-25T08:20:42;13.70;99.90
18658;DHT22;9458;50.942;5.074;2023-03-25T08:23:10;13.90;99.90
18658;DHT22;9458;50.942;5.074;2023-03-25T08:25:45;14.20;99.90
18658;DHT22;9458;50.942;5.074;2023-03-25T08:28:16;14.20;99.90
18658;DHT22;9458;50.942;5.074;2023-03-25T08:30:48;13.90;99.90
18658;DHT22;9458;50.942;5.074;2023-03-25T08:33:20;13.70;99.90
18658;DHT22;9458;50.942;5.074;2023-03-25T08:35:52;13.60;99.90
18658;DHT22;9458;50.942;5.074;2023-03-25T08:38:20;13.70;99.90
18658;DHT22;9458;50.942;5.074;2023-03-25T08:40:51;13.90;99.90
18658;DHT22;9458;50.942;5.074;2023-03-25T08:43:19;13.60;99.90
18658;DHT22;9458;50.942;5.074;2023-03-25T08:45:46;13.50;99.90
18658;DHT22;9458;50.942;5.074;2023-03-25T08:48:15;13.20;99.90
18658;DHT22;9458;50.942;5.074;2023-03-25T08:50:43;13.20;99.90
18658;DHT22;9458;50.942;5.074;2023-03-25T08:53:11;13.20;99.90
18658;DHT22;9458;50.942;5.074;2023-03-25T08:55:38;13.30;99.90
18658;DHT22;9458;50.942;5.074;2023-03-25T08:58:08;13.80;99.90
18658;DHT22;9458;50.942;5.074;2023-03-25T09:00:38;14.90;99.90
18658;DHT22;9458;50.942;5.074;2023-03-25T09:03:06;15.60;99.90
18658;DHT22;9458;50.942;5.074;2023-03-25T09:05:36;16.00;99.90
18658;DHT22;9458;50.942;5.074;2023-03-25T09:08:05;15.80;99.90
18658;DHT22;9458;50.942;5.074;2023-03-25T09:10:33;15.50;99.90
18658;DHT22;9458;50.942;5.074;2023-03-25T09:13:01;15.20;99.90
18658;DHT22;9458;50.942;5.074;2023-03-25T09:15:31;14.90;99.90
18658;DHT22;9458;50.942;5.074;2023-03-25T09:17:59;14.70;99.90
18658;DHT22;9458;50.942;5.074;2023-03-25T09:20:27;15.10;99.90
18658;DHT22;9458;50.942;5.074;2023-03-25T09:22:56;15.20;99.90
18658;DHT22;9458;50.942;5.074;2023-03-25T09:25:23;15.30;99.90
18658;DHT22;9458;50.942;5.074;2023-03-25T09:27:51;15.60;99.90
18658;DHT22;9458;50.942;5.074;2023-03-25T09:30:20;15.30;99.90
18658;DHT22;9458;50.942;5.074;2023-03-25T09:32:49;15.20;99.90
18658;DHT22;9458;50.942;5.074;2023-03-25T09:35:17;15.20;99.90
18658;DHT22;9458;50.942;5.074;2023-03-25T09:37:45;15.30;99.90
18658;DHT22;9458;50.942;5.074;2023-03-25T09:40:14;15.50;99.90
18658;DHT22;9458;50.942;5.074;2023-03-25T09:45:58;16.10;99.90
18658;DHT22;9458;50.942;5.074;2023-03-25T09:48:31;16.00;99.90
18658;DHT22;9458;50.942;5.074;2023-03-25T09:51:03;16.10;99.90
18658;DHT22;9458;50.942;5.074;2023-03-25T09:53:35;15.80;99.90
18658;DHT22;9458;50.942;5.074;2023-03-25T09:56:09;15.60;99.90
18658;DHT22;9458;50.942;5.074;2023-03-25T09:58:42;15.60;99.90
18658;DHT22;9458;50.942;5.074;2023-03-25T10:01:29;15.40;99.90
18658;DHT22;9458;50.942;5.074;2023-03-25T10:04:16;15.10;99.90
18658;DHT22;9458;50.942;5.074;2023-03-25T10:06:53;15.10;99.90
18658;DHT22;9458;50.942;5.074;2023-03-25T10:09:38;15.20;99.90
18658;DHT22;9458;50.942;5.074;2023-03-25T10:12:18;15.10;99.90
18658;DHT22;9458;50.942;5.074;2023-03-25T10:14:57;14.90;99.90
18658;DHT22;9458;50.942;5.074;2023-03-25T10:17:35;14.70;99.90
18658;DHT22;9458;50.942;5.074;2023-03-25T10:20:13;14.50;99.90
18658;DHT22;9458;50.942;5.074;2023-03-25T10:22:55;14.30;99.90
18658;DHT22;9458;50.942;5.074;2023-03-25T10:25:32;14.30;99.90
18658;DHT22;9458;50.942;5.074;2023-03-25T10:28:05;14.40;99.90
18658;DHT22;9458;50.942;5.074;2023-03-25T10:30:39;14.60;99.90
18658;DHT22;9458;50.942;5.074;2023-03-25T10:33:22;14.70;99.90
18658;DHT22;9458;50.942;5.074;2023-03-25T10:35:53;14.60;99.90
18658;DHT22;9458;50.942;5.074;2023-03-25T10:38:23;14.60;99.90
18658;DHT22;9458;50.942;5.074;2023-03-25T10:41:01;14.60;99.90
18658;DHT22;9458;50.942;5.074;2023-03-25T10:43:32;14.50;99.90
18658;DHT22;9458;50.942;5.074;2023-03-25T10:46:06;14.30;99.90
18658;DHT22;9458;50.942;5.074;2023-03-25T10:48:39;14.20;99.90
18658;DHT22;9458;50.942;5.074;2023-03-25T10:51:09;14.10;99.90
18658;DHT22;9458;50.942;5.074;2023-03-25T10:53:39;14.10;99.90
18658;DHT22;9458;50.942;5.074;2023-03-25T10:56:10;14.20;99.90
18658;DHT22;9458;50.942;5.074;2023-03-25T10:58:41;14.30;99.90
18658;DHT22;9458;50.942;5.074;2023-03-25T11:01:13;14.20;99.90
18658;DHT22;9458;50.942;5.074;2023-03-25T11:03:54;14.20;99.90
18658;DHT22;9458;50.942;5.074;2023-03-25T11:06:26;14.20;99.90
18658;DHT22;9458;50.942;5.074;2023-03-25T11:09:16;14.30;99.90
18658;DHT22;9458;50.942;5.074;2023-03-25T11:11:46;14.50;99.90
18658;DHT22;9458;50.942;5.074;2023-03-25T11:14:14;14.60;99.90
18658;DHT22;9458;50.942;5.074;2023-03-25T11:16:44;14.70;99.90
18658;DHT22;9458;50.942;5.074;2023-03-25T11:19:19;14.70;99.90
18658;DHT22;9458;50.942;5.074;2023-03-25T11:21:54;14.80;99.90
18658;DHT22;9458;50.942;5.074;2023-03-25T11:24:30;14.80;99.90
18658;DHT22;9458;50.942;5.074;2023-03-25T11:26:59;14.80;99.90
18658;DHT22;9458;50.942;5.074;2023-03-25T11:29:31;14.80;99.90
18658;DHT22;9458;50.942;5.074;2023-03-25T11:32:05;14.80;99.90
18658;DHT22;9458;50.942;5.074;2023-03-25T11:34:36;14.80;99.90
18658;DHT22;9458;50.942;5.074;2023-03-25T11:37:15;14.80;99.90
18658;DHT22;9458;50.942;5.074;2023-03-25T11:39:48;14.80;99.90
18658;DHT22;9458;50.942;5.074;2023-03-25T11:42:27;14.80;99.90
18658;DHT22;9458;50.942;5.074;2023-03-25T11:44:59;14.80;99.90
18658;DHT22;9458;50.942;5.074;2023-03-25T11:47:30;14.80;99.90
18658;DHT22;9458;50.942;5.074;2023-03-25T11:50:06;14.80;99.90
18658;DHT22;9458;50.942;5.074;2023-03-25T11:52:40;14.80;99.90
18658;DHT22;9458;50.942;5.074;2023-03-25T11:55:16;14.70;99.90
18658;DHT22;9458;50.942;5.074;2023-03-25T11:57:47;14.50;99.90
18658;DHT22;9458;50.942;5.074;2023-03-25T12:00:25;14.20;99.90
18658;DHT22;9458;50.942;5.074;2023-03-25T12:03:04;14.10;99.90
18658;DHT22;9458;50.942;5.074;2023-03-25T12:05:33;14.00;99.90
18658;DHT22;9458;50.942;5.074;2023-03-25T12:08:11;14.00;99.90
18658;DHT22;9458;50.942;5.074;2023-03-25T12:10:49;13.90;99.90
18658;DHT22;9458;50.942;5.074;2023-03-25T12:13:56;13.70;99.90
18658;DHT22;9458;50.942;5.074;2023-03-25T12:16:35;13.60;99.90
18658;DHT22;9458;50.942;5.074;2023-03-25T12:19:14;13.40;99.90
18658;DHT22;9458;50.942;5.074;2023-03-25T12:21:59;13.30;99.90
18658;DHT22;9458;50.942;5.074;2023-03-25T12:24:46;13.20;99.90
18658;DHT22;9458;50.942;5.074;2023-03-25T12:27:37;13.10;99.90
18658;DHT22;9458;50.942;5.074;2023-03-25T12:30:18;13.10;99.90
18658;DHT22;9458;50.942;5.074;2023-03-25T12:32:53;13.20;99.90
18658;DHT22;9458;50.942;5.074;2023-03-25T12:35:32;13.30;99.90
18658;DHT22;9458;50.942;5.074;2023-03-25T12:41:20;13.40;99.90
18658;DHT22;9458;50.942;5.074;2023-03-25T12:44:01;13.40;99.90
18658;DHT22;9458;50.942;5.074;2023-03-25T12:47:03;13.40;99.90
18658;DHT22;9458;50.942;5.074;2023-03-25T12:49:48;13.40;99.90
18658;DHT22;9458;50.942;5.074;2023-03-25T12:52:26;13.50;99.90
18658;DHT22;9458;50.942;5.074;2023-03-25T12:55:08;13.50;99.90
18658;DHT22;9458;50.942;5.074;2023-03-25T12:57:54;13.50;99.90
18658;DHT22;9458;50.942;5.074;2023-03-25T13:00:41;13.50;99.90
18658;DHT22;9458;50.942;5.074;2023-03-25T13:06:37;13.40;99.90
18658;DHT22;9458;50.942;5.074;2023-03-25T13:09:11;13.40;99.90
18658;DHT22;9458;50.942;5.074;2023-03-25T13:11:46;13.30;99.90
18658;DHT22;9458;50.942;5.074;2023-03-25T13:14:19;13.30;99.90
18658;DHT22;9458;50.942;5.074;2023-03-25T13:16:50;13.20;99.90
18658;DHT22;9458;50.942;5.074;2023-03-25T13:19:23;13.20;99.90
18658;DHT22;9458;50.942;5.074;2023-03-25T13:21:55;13.20;99.90
18658;DHT22;9458;50.942;5.074;2023-03-25T13:24:33;13.20;99.90
18658;DHT22;9458;50.942;5.074;2023-03-25T13:27:03;13.20;99.90
18658;DHT22;9458;50.942;5.074;2023-03-25T13:29:37;13.10;99.90
18658;DHT22;9458;50.942;5.074;2023-03-25T13:32:11;13.10;99.90
18658;DHT22;9458;50.942;5.074;2023-03-25T13:34:48;13.10;99.90
18658;DHT22;9458;50.942;5.074;2023-03-25T13:37:21;13.10;99.90
18658;DHT22;9458;50.942;5.074;2023-03-25T13:40:02;13.10;99.90
18658;DHT22;9458;50.942;5.074;2023-03-25T13:42:45;13.10;99.90
18658;DHT22;9458;50.942;5.074;2023-03-25T13:45:18;13.20;99.90
18658;DHT22;9458;50.942;5.074;2023-03-25T13:47:57;13.20;99.90
18658;DHT22;9458;50.942;5.074;2023-03-25T13:50:30;13.30;99.90
18658;DHT22;9458;50.942;5.074;2023-03-25T13:53:01;13.30;99.90
18658;DHT22;9458;50.942;5.074;2023-03-25T13:55:34;13.40;99.90
18658;DHT22;9458;50.942;5.074;2023-03-25T13:58:37;13.40;99.90
18658;DHT22;9458;50.942;5.074;2023-03-25T14:01:24;13.30;99.90
18658;DHT22;9458;50.942;5.074;2023-03-25T14:07:45;13.30;99.90
18658;DHT22;9458;50.942;5.074;2023-03-25T14:10:27;13.30;99.90
18658;DHT22;9458;50.942;5.074;2023-03-25T14:12:57;13.20;99.90
18658;DHT22;9458;50.942;5.074;2023-03-25T14:15:28;13.40;99.90
18658;DHT22;9458;50.942;5.074;2023-03-25T14:17:59;13.60;99.90
18658;DHT22;9458;50.942;5.074;2023-03-25T14:20:32;13.60;99.90
18658;DHT22;9458;50.942;5.074;2023-03-25T14:23:02;13.70;99.90
18658;DHT22;9458;50.942;5.074;2023-03-25T14:25:36;13.80;99.90
18658;DHT22;9458;50.942;5.074;2023-03-25T14:28:06;13.80;99.90
18658;DHT22;9458;50.942;5.074;2023-03-25T14:30:34;13.80;99.90
18658;DHT22;9458;50.942;5.074;2023-03-25T14:33:08;13.80;99.90
18658;DHT22;9458;50.942;5.074;2023-03-25T14:35:47;13.90;99.90
18658;DHT22;9458;50.942;5.074;2023-03-25T14:44:17;13.90;99.90
18658;DHT22;9458;50.942;5.074;2023-03-25T14:46:45;13.90;99.90
18658;DHT22;9458;50.942;5.074;2023-03-25T14:49:22;13.90;99.90
18658;DHT22;9458;50.942;5.074;2023-03-25T14:51:56;13.90;99.90
18658;DHT22;9458;50.942;5.074;2023-03-25T14:54:29;13.80;99.90
18658;DHT22;9458;50.942;5.074;2023-03-25T14:57:03;13.80;99.90
18658;DHT22;9458;50.942;5.074;2023-03-25T14:59:35;13.70;99.90
18658;DHT22;9458;50.942;5.074;2023-03-25T15:02:13;13.70;99.90
18658;DHT22;9458;50.942;5.074;2023-03-25T15:04:51;13.60;99.90
18658;DHT22;9458;50.942;5.074;2023-03-25T15:07:38;13.60;99.90
18658;DHT22;9458;50.942;5.074;2023-03-25T15:10:19;13.60;99.90
18658;DHT22;9458;50.942;5.074;2023-03-25T15:12:59;13.60;99.90
18658;DHT22;9458;50.942;5.074;2023-03-25T15:15:31;13.70;99.90
18658;DHT22;9458;50.942;5.074;2023-03-25T15:18:00;13.70;99.90
18658;DHT22;9458;50.942;5.074;2023-03-25T15:20:33;13.70;99.90
18658;DHT22;9458;50.942;5.074;2023-03-25T15:23:21;13.70;99.90
18658;DHT22;9458;50.942;5.074;2023-03-25T15:25:55;13.70;99.90
18658;DHT22;9458;50.942;5.074;2023-03-25T15:28:40;13.70;99.90
18658;DHT22;9458;50.942;5.074;2023-03-25T15:31:22;13.70;99.90
18658;DHT22;9458;50.942;5.074;2023-03-25T15:34:08;13.70;99.90
18658;DHT22;9458;50.942;5.074;2023-03-25T15:36:55;13.60;99.90
18658;DHT22;9458;50.942;5.074;2023-03-25T15:39:43;13.60;99.90
18658;DHT22;9458;50.942;5.074;2023-03-25T15:42:38;13.50;99.90
18658;DHT22;9458;50.942;5.074;2023-03-25T15:45:34;13.40;99.90
18658;DHT22;9458;50.942;5.074;2023-03-25T15:48:23;13.30;99.90
18658;DHT22;9458;50.942;5.074;2023-03-25T15:51:04;13.20;99.90
18658;DHT22;9458;50.942;5.074;2023-03-25T15:56:40;13.30;99.90
18658;DHT22;9458;50.942;5.074;2023-03-25T15:59:20;13.30;99.90
18658;DHT22;9458;50.942;5.074;2023-03-25T16:01:52;13.30;99.90
18658;DHT22;9458;50.942;5.074;2023-03-25T16:04:34;13.20;99.90
18658;DHT22;9458;50.942;5.074;2023-03-25T16:07:05;13.20;99.90
18658;DHT22;9458;50.942;5.074;2023-03-25T16:09:38;13.20;99.90
18658;DHT22;9458;50.942;5.074;2023-03-25T16:12:18;13.10;99.90
18658;DHT22;9458;50.942;5.074;2023-03-25T16:14:47;13.00;99.90
18658;DHT22;9458;50.942;5.074;2023-03-25T16:17:32;13.00;99.90
18658;DHT22;9458;50.942;5.074;2023-03-25T16:20:01;13.00;99.90
18658;DHT22;9458;50.942;5.074;2023-03-25T16:22:33;13.00;99.90
18658;DHT22;9458;50.942;5.074;2023-03-25T16:25:05;13.00;99.90
18658;DHT22;9458;50.942;5.074;2023-03-25T16:27:46;13.00;99.90
18658;DHT22;9458;50.942;5.074;2023-03-25T16:30:20;13.00;99.90
18658;DHT22;9458;50.942;5.074;2023-03-25T16:32:49;13.00;99.90
18658;DHT22;9458;50.942;5.074;2023-03-25T16:35:20;13.10;99.90
18658;DHT22;9458;50.942;5.074;2023-03-25T16:37:48;13.10;99.90
18658;DHT22;9458;50.942;5.074;2023-03-25T16:40:25;13.10;99.90
18658;DHT22;9458;50.942;5.074;2023-03-25T16:43:02;13.00;99.90
18658;DHT22;9458;50.942;5.074;2023-03-25T16:45:30;13.00;99.90
18658;DHT22;9458;50.942;5.074;2023-03-25T16:48:03;13.00;99.90